• Join FlightAware (Why Join?)
  • Login
  • US Flag 
04:11PM EDT


 

Airport Tracker/Info


-or-


 

Live Flight TrackerFlight Track Log ✈ ASA525 ✈ 30-Apr-2013 ✈ KBUR - KSEA

Flight Track Log - Related Links

Times and Time Zones

All times are in EDT time to prevent confusion due to time zone crossing. See the ASA525 flight status page for this flight to view local times or setup timezone preferences in your user account.

Time Position Orientation Groundspeed Altitude Reporting Facility
EDT Latitude Longitude Course Direction KTS MPH feet Rate Location/Type
02:05PM 34.1667 -118.3667 231° Southwest 166 191 2,300  Level Southern California TRACON
02:06PM 34.1333 -118.4167 231° Southwest 229 264 4,500 2,640 Climbing Southern California TRACON
02:08PM 34.2461 -118.5492 316° Northwest 274 315 11,700 2,340 Climbing Los Angeles Center
02:09PM 34.3272 -118.5933 336° Northwest 319 367 12,900 1,620 Climbing Los Angeles Center
02:10PM 34.4247 -118.6478 335° Northwest 389 448 15,100 2,520 Climbing Los Angeles Center
02:12PM 34.5253 -118.7042 335° Northwest 399 459 18,200 2,760 Climbing Los Angeles Center
02:13PM 34.6503 -118.7764 335° Northwest 422 486 20,900 2,280 Climbing Los Angeles Center
02:14PM 34.7592 -118.8378 335° Northwest 432 497 23,000 2,040 Climbing Los Angeles Center
02:15PM 34.8756 -118.8919 339° North 444 511 25,200 1,980 Climbing Los Angeles Center
02:16PM 35.0067 -118.9378 344° North 457 526 27,100 1,860 Climbing Los Angeles Center
02:17PM 35.1333 -118.9731 347° North 466 536 29,100 1,860 Climbing Los Angeles Center
02:18PM 35.2606 -119.0094 347° North 471 542 31,000 1,740 Climbing Los Angeles Center
02:19PM 35.3842 -119.0456 347° North 462 532 32,700 1,740 Climbing Los Angeles Center
02:20PM 35.5311 -119.0892 346° North 456 525 34,700 1,680 Climbing Los Angeles Center
02:21PM 35.6517 -119.1244 347° North 448 516 36,300 1,440 Climbing Los Angeles Center
02:21PM 35.6981 -119.1361 348° North 450 518 36,800 1,080 Climbing Oakland Center
02:22PM 35.8175 -119.1731 346° North 446 513 37,900 540 Climbing Oakland Center
02:23PM 35.9369 -119.2072 347° North 443 510 38,000  Climbing Oakland Center
02:24PM 36.0575 -119.2447 346° North 446 513 38,000  Level Oakland Center
02:25PM 36.1733 -119.2792 347° North 432 497 38,000  Level Oakland Center
02:26PM 36.3108 -119.3208 346° North 426 490 38,000  Level Oakland Center
02:27PM 36.4253 -119.3550 346° North 423 487 38,000  Level Oakland Center
02:28PM 36.5408 -119.3900 346° North 426 490 38,000  Level Oakland Center
02:29PM 36.6564 -119.4233 347° North 428 493 38,000  Level Oakland Center
02:30PM 36.7728 -119.4583 346° North 431 496 38,000  Level Oakland Center
02:31PM 36.8900 -119.4953 346° North 435 501 38,000  Level Oakland Center
02:32PM 37.0064 -119.5319 346° North 430 495 38,000  Level Oakland Center
02:34PM 37.1242 -119.5669 347° North 433 498 38,000  Level Oakland Center
02:35PM 37.2414 -119.6036 346° North 435 501 38,000  Level Oakland Center
02:36PM 37.3772 -119.6447 346° North 428 493 38,000  Level Oakland Center
02:37PM 37.4928 -119.6806 346° North 427 491 38,000  Level Oakland Center
02:38PM 37.6083 -119.7169 346° North 427 491 38,000  Level Oakland Center
02:39PM 37.7231 -119.7519 346° North 426 490 38,000  Level Oakland Center
02:40PM 37.8397 -119.7875 346° North 432 497 38,000  Level Oakland Center
02:41PM 37.9572 -119.8242 346° North 434 499 38,000  Level Oakland Center
02:42PM 38.0733 -119.8592 347° North 433 498 38,000  Level Oakland Center
02:43PM 38.1847 -119.8969 345° North 420 483 38,000  Level Oakland Center
02:44PM 38.3192 -119.9383 346° North 416 479 38,000  Level Oakland Center
02:45PM 38.4336 -119.9750 346° North 422 486 38,000  Level Oakland Center
02:46PM 38.5469 -120.0114 346° North 421 484 38,000  Level Oakland Center
02:47PM 38.6600 -120.0481 346° North 421 484 38,000  Level Oakland Center
02:48PM 38.7742 -120.0858 346° North 424 488 38,000 60 Level Oakland Center
02:49PM 38.8872 -120.1211 346° North 421 484 38,200 780 Climbing Oakland Center
02:50PM 38.9981 -120.1569 346° North 414 476 39,600 840 Climbing Oakland Center
02:51PM 39.1075 -120.1936 345° North 410 472 40,000 180 Climbing Oakland Center
02:52PM 39.2167 -120.2286 346° North 408 470 40,000  Level Oakland Center
02:53PM 39.3492 -120.2717 346° North 407 468 40,000  Level Oakland Center
02:54PM 39.4564 -120.3064 346° North 401 461 40,000  Level Oakland Center
02:55PM 39.5594 -120.3403 346° North 391 450 40,000 -660 Level Oakland Center
02:56PM 39.6600 -120.3736 346° North 379 436 38,700 -1,020 Descending Oakland Center
02:57PM 39.7647 -120.4083 346° North 384 442 38,000 -360 Descending Oakland Center
02:58PM 39.8683 -120.4425 346° North 386 444 38,000  Level Oakland Center
02:59PM 39.9722 -120.4758 346° North 384 442 38,000  Level Oakland Center
03:00PM 40.0850 -120.5153 345° North 389 448 38,000  Level Oakland Center
03:01PM 40.1906 -120.5494 346° North 391 450 38,000  Level Oakland Center
03:02PM 40.2956 -120.5847 346° North 391 450 38,000  Level Oakland Center
03:03PM 40.4008 -120.6194 346° North 391 450 38,000  Level Oakland Center
03:04PM 40.5294 -120.6600 347° North 394 453 38,000  Level Seattle Center
03:05PM 40.6103 -120.6897 344° North 394 453 38,000  Level Oakland Center
03:06PM 40.7161 -120.7181 349° North 390 449 38,000  Level Oakland Center
03:07PM 40.8364 -120.7625 344° North 377 434 38,000  Level Oakland Center
03:08PM 40.9381 -120.7969 346° North 375 432 38,000  Level Oakland Center
03:09PM 41.0378 -120.8336 345° North 372 428 38,000  Level Oakland Center
03:10PM 41.1372 -120.8736 343° North 374 430 38,000  Level Oakland Center
03:11PM 41.2614 -120.9144 346° North 383 441 38,000  Level Seattle Center
03:12PM 41.3636 -120.9492 346° North 382 440 38,000  Level Seattle Center
03:13PM 41.4633 -120.9875 344° North 377 434 38,000  Level Seattle Center
03:15PM 41.5639 -121.0225 345° North 375 432 38,000  Level Seattle Center
03:16PM 41.6656 -121.0581 345° North 377 434 38,000  Level Seattle Center
03:17PM 41.7656 -121.0931 345° North 374 430 38,000  Level Seattle Center
03:18PM 41.8864 -121.1364 345° North 375 432 38,000  Level Seattle Center
03:19PM 41.9844 -121.1703 346° North 368 423 38,000  Level Seattle Center
03:20PM 42.0825 -121.2056 345° North 366 421 38,000  Level Seattle Center
03:21PM 42.1811 -121.2408 345° North 368 423 38,000  Level Seattle Center
03:22PM 42.2806 -121.2758 345° North 371 427 38,000  Level Seattle Center
03:23PM 42.3767 -121.3103 345° North 364 419 38,000  Level Seattle Center
03:24PM 42.4736 -121.3464 345° North 362 417 38,000  Level Seattle Center
03:25PM 42.5700 -121.3792 346° North 359 413 38,000  Level Seattle Center
03:26PM 42.6675 -121.4139 345° North 361 415 38,000  Level Seattle Center
03:27PM 42.7650 -121.4494 345° North 361 415 38,000  Level Seattle Center
03:28PM 42.8608 -121.4856 345° North 359 413 38,000  Level Seattle Center
03:29PM 42.9767 -121.5258 346° North 357 411 38,000  Level Seattle Center
03:30PM 43.0717 -121.5650 343° North 355 409 38,000  Level Seattle Center
03:31PM 43.1658 -121.5975 346° North 350 403 38,000  Level Seattle Center
03:32PM 43.2589 -121.6322 345° North 346 398 38,000  Level Seattle Center
03:33PM 43.3519 -121.6661 345° North 347 399 38,000  Level Seattle Center
03:34PM 43.4442 -121.7014 344° North 343 395 38,000  Level Seattle Center
03:35PM 43.5356 -121.7350 345° North 340 391 38,000  Level Seattle Center
03:36PM 43.6272 -121.7683 345° North 341 392 38,000  Level Seattle Center
03:37PM 43.7197 -121.8033 345° North 344 396 38,000  Level Seattle Center
03:38PM 43.8217 -121.8414 345° North 341 392 38,000  Level Seattle Center
03:39PM 43.9144 -121.8750 345° North 343 395 38,000  Level Seattle Center
03:40PM 44.0075 -121.9089 345° North 334 384 38,000  Level Seattle Center
03:41PM 44.0975 -121.9433 345° North 335 386 38,000  Level Seattle Center
03:42PM 44.1856 -121.9781 344° North 330 380 38,000  Level Seattle Center
03:43PM 44.2744 -122.0106 345° North 331 381 38,000  Level Seattle Center
03:44PM 44.3647 -122.0461 344° North 336 387 38,000  Level Seattle Center
03:45PM 44.4522 -122.0797 345° North 329 379 38,000  Level Seattle Center
03:46PM 44.5414 -122.1147 344° North 332 382 38,000  Level Seattle Center
03:47PM 44.6306 -122.1494 345° North 332 382 38,000  Level Seattle Center
03:48PM 44.7369 -122.1911 344° North 332 382 38,000  Level Seattle Center
03:49PM 44.8281 -122.2256 345° North 336 387 38,000  Level Seattle Center
03:50PM 44.9067 -122.2569 344° North 339 390 38,000  Level Seattle Center
03:51PM 44.9986 -122.2950 344° North 343 395 38,000  Level Seattle Center
03:52PM 45.0903 -122.3300 345° North 343 395 38,000  Level Seattle Center
03:53PM 45.1992 -122.3739 344° North 341 392 38,000  Level Seattle Center
03:54PM 45.2903 -122.4094 345° North 341 392 38,000  Level Seattle Center
03:55PM 45.3811 -122.4444 345° North 340 391 38,000  Level Seattle Center
03:56PM 45.4717 -122.4806 344° North 340 391 38,000 -120 Level Seattle Center
03:57PM 45.5628 -122.5183 344° North 341 392 37,800 -600 Descending Seattle Center
03:58PM 45.6531 -122.5556 344° North 341 392 36,800 -960 Descending Seattle Center
03:59PM 45.7447 -122.5928 344° North 341 392 35,900 -960 Descending Seattle Center
04:00PM 45.8406 -122.6158 350° North 349 402 34,900 -1,020 Descending Seattle Center
04:01PM 45.9347 -122.6397 350° North 346 398 33,900 -2,040 Descending Seattle Center
04:02PM 46.0306 -122.6628 351° North 349 402 30,800 -2,400 Descending Seattle Center
04:03PM 46.1222 -122.6875 349° North 335 386 29,100 -1,920 Descending Seattle Center
04:04PM 46.2119 -122.7031 353° North 305 351 26,900 -1,980 Descending Seattle Center
04:05PM 46.2894 -122.7169 353° North 286 329 25,100 -1,860 Descending Seattle Center
04:06PM 46.3689 -122.7242 356° North 289 333 23,200 -2,100 Descending Seattle Center
04:07PM 46.4650 -122.7183 North 293 337 20,900 -2,160 Descending Seattle Center
04:08PM 46.5494 -122.7144 North 305 351 18,900 -1,860 Descending Seattle Center
04:09PM 46.6322 -122.7122 North 301 346 17,200 -1,980 Descending Seattle Center
04:11PM 46.7367 -122.7094 North 302 348 14,600 -2,040 Descending Seattle Center
04:11PM 46.7983 -122.7050 North 298 343 13,100 -1,560 Descending Seattle Center
04:12PM 46.8636 -122.6425 33° Northeast 291 335 11,800 -1,440 Descending Seattle Center
04:14PM 46.9347 -122.5444 43° Northeast 295 339 10,100 -1,380 Descending Seattle Center
04:14PM 46.9803 -122.4853 42° Northeast 284 327 9,100 -1,440 Descending Seattle Center
04:15PM 47.0392 -122.4194 37° Northeast 272 313 7,400 -1,560 Descending Seattle Center
04:17PM 47.1158 -122.3567 29° Northeast 267 307 6,000 -960 Descending Seattle Center
04:18PM 47.1872 -122.3322 13° North 231 266 5,400 -900 Descending Seattle Center
04:19PM 47.2494 -122.3144 11° North 229 264 4,200 -1,320 Descending Seattle Center
04:20PM 47.3161 -122.3139 360° North 239 275 2,800 -1,260 Descending Seattle Center
04:21PM 47.3672 -122.3114 North 219 252 1,800 -1,020 Descending Seattle Center
04:22PM 47.4106 -122.3117 360° North 162 186 900 -720 Descending Seattle Center
04:23PM 47.4517 -122.3122 359° North 148 170 400 -540 Descending Seattle Center
04:25PM 47.4499 -122.3118 170° South  Level Estimated